首页
METAR-TAF:

METAR-TAF

机场 :

贝鲁特, 黎巴嫩

纬度: 33-49N, 经度: 035-29E, 海拔: 29米

当前天气观测

该预报发布于23分钟前的10:00 UTC
风速9节,风向西南
温度 27°C
湿度 58%
气压 1015 hPa
能見度: 8000
散云层高于2600英尺
散云层高于7000英尺

METAR: OLBA 151000Z 23009KT 8000 SCT026 SCT070 27/18 Q1015 NOSIG

时间: 12:23 (10:23 UTC)

预报

该预报发布于6小时和23分钟前的04:00 UTC
预报有效从15日的 06点(UTC)到 16日的 12点(UTC)
风速12节,风向西南
能見度: 8000
多云层高于2600英尺
短暂存在
从 15日的 06点(UTC)到 15日的 12点(UTC)
小雨
成为
从 15日的 12点(UTC)到 15日的 15点(UTC)
风速15节,风向西
多云层高于2300英尺
小雨
短暂存在
从 15日的 12点(UTC)到 16日的 12点(UTC)
能見度: 5000
少量云层高于2000英尺, 积雨云.
阴天层高于2300英尺
雷暴, 雨

TAF: OLBA 150400Z 1506/1612 22012KT 8000 BKN026 TEMPO 1506/1512 -RA BECMG 1512/1515 26015KT -RA BKN023 TEMPO 1512/1612 5000 TSRA FEW020CB OVC023

超过4000个机场的气象观测和天气预报(METAR&TAF报告)。

可查询的气象台以黄色和红色小点在地图上表示。

将鼠标移到小点上方,可查看气象台名称。

然后点击查看天气观测和预报。

如需切换地图:点击带黑十字的绿色按钮放大地图;点击带横线的绿色按钮缩小地图;或者点击绿色箭头查看邻近地区的地图。


METAR-TAF: